createdAt,value
2023-02-16T00:01:53.034Z,40.95
2023-02-16T00:04:28.292Z,46.33
2023-02-16T00:06:55.901Z,44.25
2023-02-16T00:09:23.838Z,45.30
2023-02-16T00:12:11.187Z,42.28
2023-02-16T00:14:48.603Z,44.17
2023-02-16T00:17:18.397Z,45.72
2023-02-16T00:19:50.885Z,42.13
2023-02-16T00:22:18.297Z,47.83
2023-02-16T00:24:44.739Z,40.83
2023-02-16T00:27:15.662Z,48.28
2023-02-16T00:29:44.674Z,42.73
2023-02-16T00:32:12.478Z,45.45
2023-02-16T00:34:48.072Z,49.53
2023-02-16T00:37:14.823Z,51.33
2023-02-16T00:39:43.998Z,40.55
2023-02-16T00:42:17.566Z,42.17
2023-02-16T00:44:48.043Z,46.75
2023-02-16T00:47:35.084Z,49.55
2023-02-16T00:50:35.036Z,44.13
2023-02-16T00:53:04.977Z,45.55
2023-02-16T00:55:36.411Z,48.88
2023-02-16T00:58:24.312Z,47.90
2023-02-16T01:01:14.711Z,47.15
2023-02-16T01:03:44.704Z,38.97
2023-02-16T01:06:30.612Z,60.92
2023-02-16T01:09:29.874Z,50.55
2023-02-16T01:11:57.139Z,59.65
2023-02-16T01:14:24.240Z,70.60
2023-02-16T01:16:57.896Z,51.55
2023-02-16T01:19:25.681Z,45.70
2023-02-16T01:21:57.134Z,50.83
2023-02-16T01:24:24.570Z,57.00
2023-02-16T01:26:59.350Z,41.50
2023-02-16T01:29:25.926Z,45.75
2023-02-16T01:31:53.527Z,43.55
2023-02-16T01:34:20.097Z,43.17
2023-02-16T01:36:47.845Z,42.15
2023-02-16T01:39:19.929Z,46.50
2023-02-16T01:41:55.486Z,43.10
2023-02-16T01:44:27.343Z,46.33
2023-02-16T01:49:30.520Z,40.63
2023-02-16T01:52:05.302Z,50.35
2023-02-16T01:54:43.028Z,43.65
2023-02-16T01:57:39.943Z,41.10
2023-02-16T02:00:12.396Z,42.28
2023-02-16T02:02:44.422Z,44.55
2023-02-16T02:05:36.946Z,39.47
2023-02-16T02:08:11.098Z,40.95
2023-02-16T02:10:52.509Z,55.15
2023-02-16T02:13:21.989Z,47.50
2023-02-16T02:15:49.882Z,50.10
2023-02-16T02:18:16.574Z,45.22
2023-02-16T02:21:45.145Z,41.47
2023-02-16T02:24:49.285Z,43.20
2023-02-16T02:27:28.785Z,37.25
2023-02-16T02:29:58.192Z,37.22
2023-02-16T02:32:39.398Z,53.05
2023-02-16T02:35:24.291Z,36.85
2023-02-16T02:37:57.572Z,46.95
2023-02-16T02:41:05.646Z,42.17
2023-02-16T02:43:52.571Z,36.33
2023-02-16T02:46:27.447Z,43.17
2023-02-16T02:48:56.128Z,35.03
2023-02-16T02:51:28.589Z,31.70
2023-02-16T02:54:18.952Z,37.53
2023-02-16T02:57:40.624Z,40.80
2023-02-16T03:00:41.206Z,47.57
2023-02-16T03:03:22.108Z,41.55
2023-02-16T03:05:54.885Z,38.55
2023-02-16T03:08:25.372Z,40.92
2023-02-16T03:11:18.162Z,35.58
2023-02-16T03:13:52.706Z,44.35
2023-02-16T03:16:40.677Z,51.38
2023-02-16T03:19:29.307Z,42.10
2023-02-16T03:22:16.146Z,46.33
2023-02-16T03:25:06.515Z,44.72
2023-02-16T03:27:58.531Z,46.45
2023-02-16T03:30:27.224Z,43.40
2023-02-16T03:32:54.709Z,51.58
2023-02-16T03:35:21.483Z,48.53
2023-02-16T03:37:49.220Z,41.80
2023-02-16T03:40:29.889Z,47.28
2023-02-16T03:43:02.561Z,49.08
2023-02-16T03:45:38.865Z,48.53
2023-02-16T03:48:08.270Z,45.58
2023-02-16T03:50:34.882Z,41.50
2023-02-16T03:53:07.608Z,51.00
2023-02-16T03:55:42.461Z,48.67
2023-02-16T03:58:11.696Z,50.03
2023-02-16T04:00:45.552Z,40.78
2023-02-16T04:03:12.960Z,47.00
2023-02-16T04:05:39.873Z,44.83
2023-02-16T04:08:09.527Z,64.85
2023-02-16T04:10:36.890Z,59.22
2023-02-16T04:13:03.471Z,52.65
2023-02-16T04:15:31.092Z,52.88
2023-02-16T04:17:59.005Z,50.15
2023-02-16T04:20:29.719Z,50.63
2023-02-16T04:23:13.286Z,44.42
2023-02-16T04:25:44.368Z,39.90
2023-02-16T04:28:11.210Z,40.10
2023-02-16T04:30:37.889Z,41.30
2023-02-16T04:33:06.520Z,37.10
2023-02-16T04:35:33.061Z,42.05
2023-02-16T04:37:59.528Z,36.50
2023-02-16T04:40:26.026Z,45.35
2023-02-16T04:42:52.663Z,44.63
2023-02-16T04:45:22.140Z,41.00
2023-02-16T04:47:48.861Z,39.30
2023-02-16T04:50:15.355Z,39.20
2023-02-16T04:52:42.342Z,37.35
2023-02-16T04:55:10.718Z,34.95
2023-02-16T04:57:40.937Z,35.03
2023-02-16T05:00:09.935Z,42.38
2023-02-16T05:02:36.467Z,39.95
2023-02-16T05:05:02.991Z,45.30
2023-02-16T05:07:34.473Z,47.38
2023-02-16T05:10:00.912Z,39.33
2023-02-16T05:12:46.068Z,43.25
2023-02-16T05:15:12.547Z,45.13
2023-02-16T05:17:40.997Z,36.75
2023-02-16T05:20:07.929Z,34.40
2023-02-16T05:22:34.539Z,44.83
2023-02-16T05:25:08.250Z,51.95
2023-02-16T05:27:34.725Z,45.70
2023-02-16T05:30:01.266Z,43.45
2023-02-16T05:32:27.845Z,44.25
2023-02-16T05:34:54.264Z,50.28
2023-02-16T05:37:20.752Z,43.22
2023-02-16T05:39:47.321Z,44.22
2023-02-16T05:42:13.818Z,44.72
2023-02-16T05:44:40.337Z,45.97
2023-02-16T05:47:07.253Z,51.75
2023-02-16T05:49:33.721Z,44.80
2023-02-16T05:52:00.189Z,43.08
2023-02-16T05:54:28.028Z,42.78
2023-02-16T05:56:54.641Z,55.25
2023-02-16T05:59:21.148Z,61.90
2023-02-16T06:01:51.259Z,45.53
2023-02-16T06:04:20.577Z,43.80
2023-02-16T06:06:47.592Z,45.42
2023-02-16T06:09:15.145Z,63.78
2023-02-16T06:11:41.843Z,52.33
2023-02-16T06:14:11.170Z,50.85
2023-02-16T06:16:39.690Z,43.85
2023-02-16T06:19:12.985Z,57.72
2023-02-16T06:21:50.518Z,48.20
2023-02-16T06:24:17.122Z,49.13
2023-02-16T06:26:46.670Z,56.10
2023-02-16T06:29:13.107Z,52.83
2023-02-16T06:31:40.095Z,55.03
2023-02-16T06:34:08.518Z,50.33
2023-02-16T06:36:35.069Z,65.43
2023-02-16T06:39:08.724Z,64.78
2023-02-16T06:41:38.031Z,45.75
2023-02-16T06:44:08.138Z,55.35
2023-02-16T06:46:34.946Z,52.30
2023-02-16T06:49:01.986Z,49.03
2023-02-16T06:51:35.393Z,46.70
2023-02-16T06:54:01.906Z,43.05
2023-02-16T06:56:36.315Z,45.03
2023-02-16T06:59:04.410Z,45.83
2023-02-16T07:01:31.363Z,44.50
2023-02-16T07:03:58.216Z,44.08
2023-02-16T07:06:27.418Z,40.55
2023-02-16T07:08:53.955Z,41.72
2023-02-16T07:11:36.390Z,42.33
2023-02-16T07:14:02.818Z,37.90
2023-02-16T07:16:29.484Z,45.78
2023-02-16T07:18:55.943Z,46.35
2023-02-16T07:21:22.433Z,53.40
2023-02-16T07:23:53.938Z,55.55
2023-02-16T07:26:20.431Z,52.15
2023-02-16T07:28:52.915Z,55.42
2023-02-16T07:31:19.542Z,56.58
2023-02-16T07:33:46.193Z,53.45
2023-02-16T07:36:13.496Z,45.65
2023-02-16T07:38:41.990Z,57.35
2023-02-16T07:41:10.241Z,56.30
2023-02-16T07:43:38.501Z,55.70
2023-02-16T07:46:05.537Z,46.47
2023-02-16T07:48:32.060Z,48.25
2023-02-16T07:50:58.494Z,46.75
2023-02-16T07:53:36.031Z,47.92
2023-02-16T07:56:02.725Z,42.40
2023-02-16T07:58:29.273Z,48.42
2023-02-16T08:01:17.658Z,46.60
2023-02-16T08:03:44.089Z,49.70
2023-02-16T08:06:11.071Z,43.83
2023-02-16T08:08:40.260Z,46.60
2023-02-16T08:11:18.113Z,42.15
2023-02-16T08:13:44.820Z,42.25
2023-02-16T08:16:16.244Z,40.85
2023-02-16T08:18:42.901Z,45.45
2023-02-16T08:21:14.227Z,45.03
2023-02-16T08:23:52.681Z,47.85
2023-02-16T08:26:20.536Z,42.13
2023-02-16T08:28:50.098Z,40.90
2023-02-16T08:31:19.627Z,42.38
2023-02-16T08:33:53.413Z,45.28
2023-02-16T08:36:25.072Z,40.35
2023-02-16T08:38:54.566Z,41.50
2023-02-16T08:41:23.874Z,44.78
2023-02-16T08:44:00.843Z,46.50
2023-02-16T08:46:29.370Z,50.00
2023-02-16T08:49:00.266Z,43.35
2023-02-16T08:51:32.481Z,43.05
2023-02-16T08:54:00.288Z,41.25
2023-02-16T08:56:29.660Z,39.80
2023-02-16T08:58:57.212Z,44.08
2023-02-16T09:01:23.773Z,44.45
2023-02-16T09:03:50.610Z,40.55
2023-02-16T09:06:21.797Z,34.03
2023-02-16T09:09:07.344Z,39.03
2023-02-16T09:11:33.817Z,35.17
2023-02-16T09:14:00.479Z,32.42
2023-02-16T09:16:35.411Z,37.45
2023-02-16T09:19:02.503Z,32.78
2023-02-16T09:21:33.810Z,36.33
2023-02-16T09:24:03.436Z,34.45
2023-02-16T09:26:42.434Z,33.05
2023-02-16T09:29:10.921Z,36.03
2023-02-16T09:31:41.526Z,35.85
2023-02-16T09:34:21.264Z,33.60
2023-02-16T09:36:49.005Z,28.77
2023-02-16T09:39:17.097Z,34.78
2023-02-16T09:41:54.706Z,36.45
2023-02-16T09:44:39.907Z,32.05
2023-02-16T09:47:19.631Z,38.05
2023-02-16T09:49:46.882Z,35.47
2023-02-16T09:52:51.482Z,38.28
2023-02-16T09:55:20.849Z,40.25
2023-02-16T09:58:08.343Z,37.65
2023-02-16T10:00:35.810Z,36.35
2023-02-16T10:03:43.630Z,32.35
2023-02-16T10:06:24.779Z,37.92
2023-02-16T10:08:55.664Z,35.30
2023-02-16T10:11:41.505Z,37.37
2023-02-16T10:14:31.708Z,37.78
2023-02-16T10:17:24.206Z,33.78
2023-02-16T10:20:07.582Z,32.22
2023-02-16T10:22:39.949Z,33.03
2023-02-16T10:25:16.961Z,36.90
2023-02-16T10:27:50.179Z,36.88
2023-02-16T10:30:19.353Z,31.70
2023-02-16T10:32:56.644Z,39.53
2023-02-16T10:35:46.970Z,34.83
2023-02-16T10:38:22.533Z,32.00
2023-02-16T10:41:07.028Z,35.08
2023-02-16T10:43:40.329Z,34.60
2023-02-16T10:46:12.061Z,34.78
2023-02-16T10:48:38.575Z,34.58
2023-02-16T10:51:12.859Z,31.52
2023-02-16T10:54:05.766Z,38.42
2023-02-16T10:56:54.173Z,32.78
2023-02-16T10:59:33.361Z,36.47
2023-02-16T11:02:04.289Z,32.97
2023-02-16T11:04:41.520Z,33.73
2023-02-16T11:07:20.217Z,30.92
2023-02-16T11:09:56.093Z,35.42
2023-02-16T11:12:32.628Z,33.42
2023-02-16T11:15:23.550Z,35.83
2023-02-16T11:17:52.904Z,31.35
2023-02-16T11:20:45.814Z,32.33
2023-02-16T11:23:26.843Z,33.30
2023-02-16T11:26:02.952Z,33.72
2023-02-16T11:28:44.857Z,31.65
2023-02-16T11:31:14.624Z,31.05
2023-02-16T11:33:43.269Z,34.00
2023-02-16T11:36:41.253Z,33.78
2023-02-16T11:39:13.388Z,33.30
2023-02-16T11:42:12.528Z,33.28
2023-02-16T11:44:53.060Z,35.47
2023-02-16T11:47:22.612Z,34.22
2023-02-16T11:49:52.036Z,33.00
2023-02-16T11:52:24.584Z,32.88
2023-02-16T11:54:54.480Z,34.78
2023-02-16T11:57:33.774Z,33.83
2023-02-16T12:00:07.538Z,35.13
2023-02-16T12:03:13.514Z,36.25
2023-02-16T12:05:58.329Z,33.35
2023-02-16T12:08:38.497Z,32.83
2023-02-16T12:11:11.112Z,36.22
2023-02-16T12:13:59.137Z,32.88
2023-02-16T12:16:49.402Z,34.28
2023-02-16T12:19:35.794Z,39.17
2023-02-16T12:22:31.282Z,37.92
2023-02-16T12:25:19.916Z,37.90
2023-02-16T12:28:01.709Z,36.78
2023-02-16T12:30:40.115Z,34.78
2023-02-16T12:33:37.202Z,35.70
2023-02-16T12:36:27.255Z,35.30
2023-02-16T12:39:07.727Z,39.17
2023-02-16T12:41:58.697Z,40.17
2023-02-16T12:44:39.429Z,34.38
2023-02-16T12:47:13.615Z,39.83
2023-02-16T12:50:04.650Z,38.35
2023-02-16T12:52:37.905Z,35.95
2023-02-16T12:55:19.892Z,35.92
2023-02-16T13:00:41.041Z,38.92
2023-02-16T13:03:16.482Z,33.33
2023-02-16T13:05:46.010Z,35.22
2023-02-16T13:08:41.989Z,36.70
2023-02-16T13:11:24.604Z,38.95
2023-02-16T13:13:56.816Z,34.65
2023-02-16T13:16:31.876Z,33.33
2023-02-16T13:18:58.629Z,37.55
2023-02-16T13:21:51.503Z,36.70
2023-02-16T13:24:35.426Z,38.40
2023-02-16T13:27:41.982Z,36.35
2023-02-16T13:30:15.568Z,35.65
2023-02-16T13:33:07.063Z,31.45
2023-02-16T13:36:07.668Z,38.22
2023-02-16T13:39:12.715Z,35.15
2023-02-16T13:41:57.418Z,37.35
2023-02-16T13:44:37.485Z,37.60
2023-02-16T13:47:05.168Z,41.53
2023-02-16T13:49:42.300Z,35.58
2023-02-16T13:52:11.455Z,38.45
2023-02-16T13:54:45.400Z,34.13
2023-02-16T13:57:35.301Z,37.78
2023-02-16T14:00:05.731Z,38.72
2023-02-16T14:02:54.384Z,29.35
2023-02-16T14:05:30.418Z,38.33
2023-02-16T14:08:15.313Z,35.65
2023-02-16T14:10:56.074Z,30.75
2023-02-16T14:13:49.749Z,39.15
2023-02-16T14:16:22.638Z,36.42
2023-02-16T14:19:25.520Z,39.95
2023-02-16T14:21:52.483Z,38.78
2023-02-16T14:24:24.863Z,33.30
2023-02-16T14:27:01.080Z,35.45
2023-02-16T14:29:32.190Z,36.13
2023-02-16T14:32:04.564Z,31.42
2023-02-16T14:34:42.834Z,35.15
2023-02-16T14:37:14.679Z,39.35
2023-02-16T14:42:33.057Z,38.88
2023-02-16T14:45:26.066Z,37.13
2023-02-16T14:48:42.176Z,39.38
2023-02-16T14:51:35.275Z,40.30
2023-02-16T14:54:31.008Z,35.10
2023-02-16T14:57:02.200Z,39.05
2023-02-16T14:59:35.481Z,35.97
2023-02-16T15:02:35.197Z,42.03
2023-02-16T15:05:17.787Z,39.28
2023-02-16T15:07:50.385Z,37.72
2023-02-16T15:10:26.446Z,38.88
2023-02-16T15:12:55.277Z,38.63
2023-02-16T15:15:50.014Z,40.40
2023-02-16T15:18:20.757Z,39.75
2023-02-16T15:20:51.178Z,41.05
2023-02-16T15:23:22.935Z,36.92
2023-02-16T15:25:58.841Z,43.97
2023-02-16T15:28:30.742Z,40.22
2023-02-16T15:33:36.177Z,37.40
2023-02-16T15:36:10.792Z,42.13
2023-02-16T15:38:57.177Z,41.95
2023-02-16T15:41:31.488Z,44.03
2023-02-16T15:43:59.512Z,40.38
2023-02-16T15:46:28.636Z,40.28
2023-02-16T15:48:55.112Z,40.55
2023-02-16T15:51:33.861Z,42.80
2023-02-16T15:54:04.688Z,40.63
2023-02-16T15:56:39.878Z,41.10
2023-02-16T15:59:39.459Z,39.28
2023-02-16T16:02:15.518Z,42.30
2023-02-16T16:04:55.241Z,50.22
2023-02-16T16:07:35.884Z,57.25
2023-02-16T16:10:11.654Z,55.70
2023-02-16T16:12:38.408Z,52.25
2023-02-16T16:15:05.731Z,49.28
2023-02-16T16:17:39.615Z,43.42
2023-02-16T16:20:23.236Z,46.83
2023-02-16T16:23:16.508Z,45.67
2023-02-16T16:25:48.117Z,41.67
2023-02-16T16:28:35.772Z,41.42
2023-02-16T16:31:31.241Z,51.00
2023-02-16T16:34:09.888Z,44.33
2023-02-16T16:36:55.651Z,46.97
2023-02-16T16:39:26.259Z,54.78
2023-02-16T16:42:22.615Z,54.65
2023-02-16T16:45:07.609Z,54.63
2023-02-16T16:47:41.248Z,45.08
2023-02-16T16:50:14.225Z,60.90
2023-02-16T16:52:46.632Z,60.42
2023-02-16T16:55:19.170Z,52.22
2023-02-16T16:57:51.989Z,57.58
2023-02-16T17:00:22.048Z,50.15
2023-02-16T17:02:48.798Z,55.42
2023-02-16T17:05:16.543Z,49.63
2023-02-16T17:07:43.289Z,43.08
2023-02-16T17:10:10.032Z,47.65
2023-02-16T17:12:36.557Z,53.67
2023-02-16T17:15:03.533Z,43.53
2023-02-16T17:17:31.801Z,56.78
2023-02-16T17:20:01.309Z,51.25
2023-02-16T17:22:27.718Z,43.90
2023-02-16T17:24:55.405Z,41.05
2023-02-16T17:27:23.045Z,46.90
2023-02-16T17:29:49.541Z,42.40
2023-02-16T17:32:16.249Z,47.03
2023-02-16T17:34:45.785Z,46.25
2023-02-16T17:37:12.674Z,48.85
2023-02-16T17:39:40.220Z,48.15
2023-02-16T17:42:11.574Z,42.63
2023-02-16T17:44:38.065Z,48.45
2023-02-16T17:47:15.414Z,40.47
2023-02-16T17:49:42.229Z,39.92
2023-02-16T17:52:11.536Z,41.90
2023-02-16T17:54:44.140Z,41.08
2023-02-16T17:57:12.053Z,42.22
2023-02-16T17:59:41.235Z,57.33
2023-02-16T18:02:10.754Z,56.85
2023-02-16T18:04:41.178Z,49.28
2023-02-16T18:07:20.767Z,50.97
2023-02-16T18:09:48.309Z,57.80
2023-02-16T18:12:15.078Z,51.45
2023-02-16T18:14:41.639Z,52.90
2023-02-16T18:17:08.570Z,51.35
2023-02-16T18:19:40.211Z,56.58
2023-02-16T18:22:06.672Z,47.35
2023-02-16T18:24:36.165Z,46.90
2023-02-16T18:27:06.127Z,48.95
2023-02-16T18:29:32.648Z,55.28
2023-02-16T18:31:59.175Z,42.33
2023-02-16T18:34:26.385Z,43.50
2023-02-16T18:36:52.869Z,49.63
2023-02-16T18:39:19.310Z,41.67
2023-02-16T18:41:46.777Z,48.80
2023-02-16T18:44:14.230Z,49.05
2023-02-16T18:46:40.653Z,59.30
2023-02-16T18:49:07.078Z,49.03
2023-02-16T18:51:36.526Z,53.42
2023-02-16T18:54:03.069Z,44.42
2023-02-16T18:56:29.565Z,56.88
2023-02-16T18:58:57.278Z,54.47
2023-02-16T19:01:29.824Z,54.20
2023-02-16T19:03:57.331Z,48.63
2023-02-16T19:06:24.665Z,42.33
2023-02-16T19:08:53.682Z,50.85
2023-02-16T19:11:20.842Z,48.88
2023-02-16T19:13:48.683Z,43.63
2023-02-16T19:16:16.895Z,54.22
2023-02-16T19:18:43.385Z,69.82
2023-02-16T19:21:11.408Z,43.03
2023-02-16T19:23:50.832Z,44.72
2023-02-16T19:26:18.868Z,46.90
2023-02-16T19:28:45.865Z,41.45
2023-02-16T19:31:22.167Z,42.67
2023-02-16T19:33:49.962Z,36.80
2023-02-16T19:36:17.508Z,42.72
2023-02-16T19:38:47.946Z,40.70
2023-02-16T19:41:43.513Z,42.58
2023-02-16T19:44:13.906Z,44.88
2023-02-16T19:46:40.989Z,44.42
2023-02-16T19:49:07.805Z,45.85
2023-02-16T19:51:34.359Z,66.03
2023-02-16T19:54:00.969Z,47.97
2023-02-16T19:56:27.560Z,44.75
2023-02-16T19:58:57.075Z,42.35
2023-02-16T20:01:26.312Z,36.40
2023-02-16T20:03:56.470Z,37.58
2023-02-16T20:06:26.973Z,39.45
2023-02-16T20:08:55.774Z,44.42
2023-02-16T20:11:24.978Z,40.78
2023-02-16T20:13:52.368Z,53.67
2023-02-16T20:16:27.065Z,42.83
2023-02-16T20:18:55.178Z,42.00
2023-02-16T20:21:26.873Z,42.28
2023-02-16T20:23:58.643Z,42.90
2023-02-16T20:26:34.402Z,38.67
2023-02-16T20:29:02.206Z,38.83
2023-02-16T20:31:35.398Z,40.83
2023-02-16T20:34:04.728Z,48.60
2023-02-16T20:36:32.333Z,45.53
2023-02-16T20:38:58.875Z,42.00
2023-02-16T20:41:25.298Z,49.97
2023-02-16T20:43:52.927Z,41.30
2023-02-16T20:46:19.858Z,45.47
2023-02-16T20:48:46.487Z,49.58
2023-02-16T20:51:21.331Z,41.50
2023-02-16T20:53:49.047Z,46.00
2023-02-16T20:56:21.967Z,36.65
2023-02-16T20:58:50.131Z,43.15
2023-02-16T21:01:20.875Z,56.17
2023-02-16T21:03:47.739Z,43.15
2023-02-16T21:06:14.936Z,52.50
2023-02-16T21:08:41.746Z,42.35
2023-02-16T21:11:08.329Z,53.47
2023-02-16T21:13:37.596Z,43.00
2023-02-16T21:16:04.754Z,46.17
2023-02-16T21:18:31.445Z,47.72
2023-02-16T21:21:02.049Z,45.40
2023-02-16T21:23:28.636Z,41.15
2023-02-16T21:25:59.588Z,44.40
2023-02-16T21:28:33.527Z,43.33
2023-02-16T21:31:12.986Z,43.25
2023-02-16T21:33:41.467Z,44.85
2023-02-16T21:36:14.120Z,49.38
2023-02-16T21:38:41.614Z,44.28
2023-02-16T21:41:25.112Z,45.17
2023-02-16T21:44:01.578Z,39.70
2023-02-16T21:46:31.056Z,45.58
2023-02-16T21:48:57.953Z,45.17
2023-02-16T21:51:28.839Z,38.05
2023-02-16T21:53:55.629Z,37.97
2023-02-16T21:56:29.330Z,46.42
2023-02-16T21:58:56.404Z,47.20
2023-02-16T22:01:31.977Z,46.05
2023-02-16T22:04:01.033Z,49.38
2023-02-16T22:06:38.187Z,45.63
2023-02-16T22:09:08.274Z,48.15
2023-02-16T22:11:35.142Z,45.25
2023-02-16T22:14:08.496Z,43.65
2023-02-16T22:16:44.999Z,48.40
2023-02-16T22:19:15.098Z,49.38
2023-02-16T22:21:43.674Z,44.15
2023-02-16T22:24:14.917Z,44.72
2023-02-16T22:26:42.045Z,48.63
2023-02-16T22:29:11.356Z,54.95
2023-02-16T22:31:38.671Z,49.13
2023-02-16T22:34:13.600Z,47.00
2023-02-16T22:36:40.656Z,47.85
2023-02-16T22:39:07.720Z,49.17
2023-02-16T22:41:35.354Z,43.00
2023-02-16T22:44:02.249Z,42.03
2023-02-16T22:46:30.776Z,46.78
2023-02-16T22:48:58.791Z,43.28
2023-02-16T22:51:30.241Z,50.75
2023-02-16T22:54:00.895Z,42.53
2023-02-16T22:56:29.715Z,49.63
2023-02-16T22:58:57.804Z,43.35
2023-02-16T23:01:26.640Z,48.00
2023-02-16T23:03:59.145Z,42.30
2023-02-16T23:06:31.476Z,38.92
2023-02-16T23:09:07.155Z,38.08
2023-02-16T23:11:35.110Z,35.47
2023-02-16T23:14:01.708Z,36.53
2023-02-16T23:16:28.618Z,39.85
2023-02-16T23:18:58.995Z,35.13
2023-02-16T23:21:28.345Z,36.83
2023-02-16T23:23:55.673Z,39.10
2023-02-16T23:26:25.585Z,43.05
2023-02-16T23:28:56.184Z,35.40
2023-02-16T23:31:23.164Z,35.88
2023-02-16T23:33:50.988Z,39.42
2023-02-16T23:36:17.547Z,39.50
2023-02-16T23:38:43.991Z,37.47
2023-02-16T23:41:14.768Z,42.83
2023-02-16T23:43:43.506Z,41.95
2023-02-16T23:46:10.700Z,43.58
2023-02-16T23:48:39.460Z,40.83
2023-02-16T23:51:06.295Z,39.33
2023-02-16T23:53:32.841Z,43.83
2023-02-16T23:56:08.732Z,42.88
2023-02-16T23:58:41.198Z,46.90
